Time;durP1;ratioP1;P1;durP2;ratioP2;P2;SDS_P1;SDS_P2;PMS_P1;PMS_P2;Temp;Humidity;BMP_temperature;BMP_pressure;BME280_temperature;BME280_humidity;BME280_pressure;Samples;Min_cycle;Max_cycle;Signal;HPM_P1;HPM_P2
2022/01/16 00:04:38;;;;;;;23.02;15.75;;;5.80;96.70;;;;;;4916451;29;20036;-70
2022/01/16 00:07:07;;;;;;;22.85;14.30;;;5.80;96.70;;;;;;4887424;29;20047;-70
2022/01/16 00:09:38;;;;;;;20.77;14.35;;;5.80;96.70;;;;;;4904276;29;20499;-70
2022/01/16 00:12:07;;;;;;;22.83;15.00;;;5.70;96.70;;;;;;4916754;29;20126;-70
2022/01/16 00:14:35;;;;;;;22.38;14.70;;;5.70;96.70;;;;;;4902946;29;20581;-70
2022/01/16 00:17:04;;;;;;;24.63;16.63;;;5.80;96.70;;;;;;4916665;29;20051;-70
2022/01/16 00:19:32;;;;;;;22.42;14.77;;;5.80;96.70;;;;;;4902539;29;20057;-70
2022/01/16 00:22:05;;;;;;;21.73;15.23;;;5.70;96.70;;;;;;4913856;29;20048;-70
2022/01/16 00:24:34;;;;;;;21.83;13.45;;;5.70;96.70;;;;;;4903356;29;20492;-70
2022/01/16 00:27:03;;;;;;;19.08;13.65;;;5.80;96.70;;;;;;4895125;29;20091;-70
2022/01/16 00:29:31;;;;;;;19.50;13.60;;;5.80;96.70;;;;;;4914670;29;20047;-70
2022/01/16 00:31:59;;;;;;;23.38;16.98;;;5.70;96.70;;;;;;4895649;29;20103;-70
2022/01/16 00:34:27;;;;;;;24.60;16.58;;;5.70;96.70;;;;;;4903221;29;20537;-70
2022/01/16 00:36:55;;;;;;;22.80;15.77;;;5.60;96.70;;;;;;4893300;29;20542;-70
2022/01/16 00:39:24;;;;;;;19.95;14.00;;;5.60;96.70;;;;;;4896501;29;20051;-70
2022/01/16 00:41:52;;;;;;;21.15;13.95;;;5.70;96.70;;;;;;4897141;29;20044;-71
2022/01/16 00:44:21;;;;;;;20.88;15.32;;;5.70;96.70;;;;;;4916333;29;20036;-71
2022/01/16 00:46:49;;;;;;;21.98;15.80;;;5.60;96.70;;;;;;4883910;29;20054;-70
2022/01/16 00:49:17;;;;;;;19.55;13.55;;;5.60;96.70;;;;;;4898934;29;20052;-70
2022/01/16 00:51:46;;;;;;;20.58;14.07;;;5.70;96.70;;;;;;4898051;29;20052;-70
2022/01/16 00:54:14;;;;;;;22.38;18.20;;;5.60;96.70;;;;;;4897148;29;20134;-70
2022/01/16 00:56:44;;;;;;;18.30;13.68;;;5.50;96.70;;;;;;4919882;29;20111;-70
2022/01/16 00:59:12;;;;;;;21.48;14.48;;;5.50;96.70;;;;;;4917734;29;20055;-70
2022/01/16 01:01:40;;;;;;;21.33;15.63;;;5.50;96.70;;;;;;4897706;29;20119;-70
2022/01/16 01:04:08;;;;;;;21.85;14.55;;;5.40;96.70;;;;;;4913232;29;20123;-70
2022/01/16 01:06:36;;;;;;;19.60;13.60;;;5.40;96.70;;;;;;4918227;29;20103;-71
2022/01/16 01:09:04;;;;;;;19.60;12.98;;;5.40;96.70;;;;;;4898053;29;20082;-70
2022/01/16 01:11:32;;;;;;;19.73;14.13;;;5.50;96.70;;;;;;4901310;29;20055;-70
2022/01/16 01:16:48;;;;;;;20.77;13.75;;;5.50;96.70;;;;;;4903439;29;20063;-70
2022/01/16 01:19:18;;;;;;;22.50;14.38;;;5.40;96.70;;;;;;4880733;29;20137;-70
2022/01/16 01:21:46;;;;;;;24.17;14.70;;;5.20;96.70;;;;;;4914916;29;20471;-70
2022/01/16 01:24:14;;;;;;;23.13;15.27;;;5.20;96.70;;;;;;4896870;29;20044;-70
2022/01/16 01:26:52;;;;;;;28.02;15.93;;;5.20;96.70;;;;;;4901734;29;20569;-70
2022/01/16 01:29:21;;;;;;;24.38;15.20;;;5.30;96.70;;;;;;4918463;29;20046;-70
2022/01/16 01:31:52;;;;;;;24.58;15.27;;;5.30;96.70;;;;;;4902394;29;20048;-70
2022/01/16 01:34:20;;;;;;;24.25;14.77;;;5.30;96.70;;;;;;4898686;29;20058;-70
2022/01/16 01:36:49;;;;;;;20.73;14.00;;;5.30;96.70;;;;;;4915619;29;20045;-70
2022/01/16 01:39:18;;;;;;;19.55;13.65;;;5.20;96.70;;;;;;4896575;29;20052;-70
2022/01/16 01:41:49;;;;;;;21.13;14.20;;;5.10;96.70;;;;;;4905109;29;20062;-70
2022/01/16 01:52:41;;;;;;;19.40;14.45;;;5.20;96.70;;;;;;4923129;29;20054;-70
2022/01/16 01:55:12;;;;;;;20.83;13.15;;;5.20;96.70;;;;;;4919401;29;20215;-70
2022/01/16 01:57:40;;;;;;;21.58;14.13;;;5.20;96.70;;;;;;4913008;29;20406;-70
2022/01/16 02:00:10;;;;;;;19.13;13.43;;;5.20;96.70;;;;;;4918671;29;20052;-70
2022/01/16 02:02:56;;;;;;;23.63;16.33;;;5.20;96.70;;;;;;4899759;29;20044;-70
2022/01/16 02:05:25;;;;;;;23.27;16.35;;;5.30;96.70;;;;;;4919982;29;20047;-70
2022/01/16 02:07:53;;;;;;;29.88;20.23;;;5.30;96.70;;;;;;4908130;29;20055;-71
2022/01/16 02:10:21;;;;;;;39.97;21.13;;;5.20;96.70;;;;;;4908263;29;20143;-72
2022/01/16 02:12:56;;;;;;;29.05;15.65;;;5.00;96.70;;;;;;4902132;29;20561;-72
2022/01/16 02:15:50;;;;;;;26.60;15.77;;;5.00;96.70;;;;;;4915762;29;20143;-72
2022/01/16 02:34:58;;;;;;;23.80;15.35;;;5.40;96.70;;;;;;4912425;29;20075;-72
2022/01/16 02:37:26;;;;;;;24.20;15.05;;;5.40;96.70;;;;;;4920103;29;20035;-72
2022/01/16 02:40:02;;;;;;;23.13;14.05;;;5.40;96.70;;;;;;4918522;29;20047;-72
2022/01/16 02:42:36;;;;;;;23.67;14.45;;;5.30;96.70;;;;;;4918306;29;20052;-72
2022/01/16 02:45:06;;;;;;;23.25;14.73;;;5.30;96.70;;;;;;4885448;29;20139;-72
2022/01/16 02:47:34;;;;;;;23.27;13.68;;;5.30;96.70;;;;;;4918947;29;20076;-72
2022/01/16 02:50:22;;;;;;;25.17;14.15;;;5.30;96.70;;;;;;4912238;29;20605;-72
2022/01/16 02:52:51;;;;;;;22.42;15.80;;;5.30;96.70;;;;;;4919596;29;20526;-72
2022/01/16 02:55:22;;;;;;;21.70;13.57;;;5.40;96.70;;;;;;4902937;29;20091;-71
2022/01/16 02:57:53;;;;;;;21.58;13.85;;;5.40;96.70;;;;;;4921150;29;20502;-71
2022/01/16 03:00:23;;;;;;;20.25;13.60;;;5.50;96.70;;;;;;4898967;29;20052;-72
2022/01/16 03:02:51;;;;;;;20.05;13.77;;;5.40;96.70;;;;;;4916445;29;20096;-72
2022/01/16 03:05:19;;;;;;;19.48;14.32;;;5.40;96.70;;;;;;4917115;29;20048;-72
2022/01/16 03:07:47;;;;;;;20.58;14.18;;;5.40;96.70;;;;;;4900795;29;20511;-72
2022/01/16 03:12:54;;;;;;;18.75;12.45;;;5.40;96.70;;;;;;4922110;29;20051;-72
2022/01/16 03:15:23;;;;;;;22.10;14.10;;;5.40;96.70;;;;;;4913031;29;20047;-72
2022/01/16 03:23:27;;;;;;;20.63;12.90;;;5.40;96.70;;;;;;4903553;29;20063;-73
2022/01/16 03:25:56;;;;;;;20.98;13.27;;;5.20;96.70;;;;;;4916256;29;20099;-72
2022/01/16 03:28:26;;;;;;;19.30;12.50;;;5.20;96.70;;;;;;4904226;29;20076;-72
2022/01/16 03:30:55;;;;;;;18.67;11.13;;;5.20;96.70;;;;;;4921450;29;20051;-73
2022/01/16 03:33:23;;;;;;;18.60;12.23;;;5.20;96.70;;;;;;4884480;29;20063;-73
2022/01/16 03:35:52;;;;;;;19.23;13.50;;;5.20;96.70;;;;;;4918862;29;20131;-71
2022/01/16 03:38:20;;;;;;;18.15;13.15;;;5.30;96.70;;;;;;4905816;29;20054;-72
2022/01/16 03:40:49;;;;;;;22.77;14.40;;;5.20;96.70;;;;;;4915736;29;20138;-72
2022/01/16 03:43:17;;;;;;;23.10;17.85;;;5.20;96.70;;;;;;4900437;29;20063;-73
2022/01/16 03:45:47;;;;;;;21.38;14.80;;;5.20;96.70;;;;;;4918934;29;20095;-72
2022/01/16 03:48:16;;;;;;;21.25;14.32;;;5.20;96.70;;;;;;4896118;29;20410;-72
2022/01/16 03:50:45;;;;;;;20.52;12.82;;;5.20;96.70;;;;;;4902151;29;20680;-72
2022/01/16 03:53:13;;;;;;;19.63;12.60;;;5.30;96.70;;;;;;4899828;29;20043;-72
2022/01/16 03:55:41;;;;;;;17.67;13.15;;;5.20;96.70;;;;;;4914598;29;20475;-72
2022/01/16 03:58:10;;;;;;;17.60;12.68;;;5.30;96.70;;;;;;4919634;29;20048;-72
2022/01/16 04:00:38;;;;;;;17.95;12.90;;;5.40;96.70;;;;;;4904719;29;20043;-72
2022/01/16 04:03:08;;;;;;;20.25;11.65;;;5.40;96.70;;;;;;4912492;29;20048;-72
2022/01/16 04:05:37;;;;;;;18.00;11.48;;;5.40;96.70;;;;;;4914511;29;20040;-72
2022/01/16 04:08:05;;;;;;;18.50;10.65;;;5.50;96.70;;;;;;4921477;29;20464;-72
2022/01/16 04:10:33;;;;;;;20.90;11.18;;;5.50;96.70;;;;;;4904724;29;20503;-73
2022/01/16 04:13:03;;;;;;;21.38;10.73;;;5.50;96.70;;;;;;4908107;29;20052;-72
2022/01/16 04:15:31;;;;;;;16.63;11.43;;;5.50;96.70;;;;;;4880005;29;20049;-72
2022/01/16 04:18:02;;;;;;;17.83;11.38;;;5.50;96.70;;;;;;4896993;29;20040;-72
2022/01/16 04:20:33;;;;;;;19.38;12.23;;;5.60;96.70;;;;;;4899556;29;20415;-72
2022/01/16 04:23:02;;;;;;;16.77;11.38;;;5.50;96.70;;;;;;4899758;29;20497;-72
2022/01/16 04:25:31;;;;;;;19.17;12.32;;;5.60;96.70;;;;;;4868067;29;20079;-72
2022/01/16 04:27:59;;;;;;;16.95;11.70;;;5.60;96.70;;;;;;4887009;29;20148;-72
2022/01/16 04:30:27;;;;;;;17.75;12.50;;;5.60;96.70;;;;;;4905416;29;20078;-71
2022/01/16 04:32:55;;;;;;;17.70;11.32;;;5.60;96.70;;;;;;4884358;29;20062;-71
2022/01/16 04:35:24;;;;;;;24.00;16.63;;;5.60;96.70;;;;;;4878927;29;20040;-71
2022/01/16 04:37:54;;;;;;;16.70;11.75;;;5.50;96.70;;;;;;4881320;29;20418;-71
2022/01/16 04:40:40;;;;;;;16.15;10.98;;;5.50;96.70;;;;;;4880017;29;20071;-70
2022/01/16 04:45:59;;;;;;;15.60;10.73;;;5.60;96.70;;;;;;4893692;29;20139;-71
2022/01/16 04:48:27;;;;;;;17.48;12.95;;;5.70;96.70;;;;;;4881502;29;20045;-71
2022/01/16 04:50:56;;;;;;;17.77;11.93;;;5.70;96.70;;;;;;4898246;29;20040;-70
2022/01/16 04:53:25;;;;;;;17.27;12.40;;;5.70;96.70;;;;;;4880712;29;20596;-70
2022/01/16 04:55:54;;;;;;;13.40;10.30;;;5.70;96.70;;;;;;4876515;29;20048;-71
2022/01/16 04:58:22;;;;;;;15.18;10.07;;;5.70;96.70;;;;;;4897309;29;20049;-71
2022/01/16 05:00:54;;;;;;;17.70;11.70;;;5.70;96.70;;;;;;4877279;29;20376;-71
2022/01/16 05:03:24;;;;;;;17.02;11.30;;;5.80;96.70;;;;;;4862384;29;20414;-71
2022/01/16 05:05:52;;;;;;;17.10;11.48;;;5.70;96.70;;;;;;4891033;29;20068;-70
2022/01/16 05:08:20;;;;;;;14.02;10.00;;;5.70;96.70;;;;;;4883467;29;20040;-72
2022/01/16 05:10:55;;;;;;;18.02;11.30;;;5.80;96.70;;;;;;4879166;29;20527;-71
2022/01/16 05:13:31;;;;;;;17.27;11.32;;;5.70;96.70;;;;;;4886772;29;20070;-72
2022/01/16 05:18:46;;;;;;;;;;;5.60;96.70;;;;;;4917327;29;20043;-72
2022/01/16 05:21:14;;;;;;;16.80;11.10;;;5.70;96.70;;;;;;4895304;29;20041;-72
2022/01/16 05:23:42;;;;;;;16.10;11.35;;;5.70;96.70;;;;;;4923244;29;20051;-71
2022/01/16 05:26:14;;;;;;;17.67;10.43;;;5.80;96.70;;;;;;4917700;29;20096;-72
2022/01/16 05:28:42;;;;;;;18.45;10.52;;;5.70;96.70;;;;;;4902514;29;20070;-72
2022/01/16 05:31:10;;;;;;;15.77;10.85;;;5.70;96.70;;;;;;4898895;29;20122;-71
2022/01/16 05:33:39;;;;;;;19.00;11.00;;;5.80;96.70;;;;;;4916236;29;20051;-72
2022/01/16 05:36:07;;;;;;;16.38;10.68;;;5.70;96.70;;;;;;4895069;29;20070;-72
2022/01/16 05:38:36;;;;;;;14.63;11.25;;;5.80;96.70;;;;;;4894834;29;20178;-72
2022/01/16 05:41:04;;;;;;;15.88;10.77;;;5.80;96.70;;;;;;4917264;29;20072;-72
2022/01/16 05:43:34;;;;;;;15.70;11.10;;;5.80;96.70;;;;;;4898508;29;20048;-72
2022/01/16 05:46:03;;;;;;;15.38;11.75;;;5.80;96.70;;;;;;4900031;29;20048;-72
2022/01/16 05:48:31;;;;;;;16.27;10.95;;;5.90;96.70;;;;;;4915726;29;20043;-72
2022/01/16 05:51:00;;;;;;;16.50;11.57;;;5.90;96.70;;;;;;4898896;29;20044;-72
2022/01/16 05:53:29;;;;;;;15.20;10.88;;;5.90;96.70;;;;;;4916137;29;20067;-72
2022/01/16 05:55:57;;;;;;;19.52;11.15;;;5.90;96.70;;;;;;4913805;29;20409;-72
2022/01/16 05:58:25;;;;;;;16.42;10.90;;;5.90;96.70;;;;;;4897004;29;20062;-72
2022/01/16 06:00:55;;;;;;;17.35;11.13;;;5.90;96.70;;;;;;4914283;29;20048;-72
2022/01/16 06:03:23;;;;;;;17.73;12.27;;;6.00;96.70;;;;;;4914225;29;20066;-72
2022/01/16 06:05:52;;;;;;;17.67;11.10;;;6.00;96.70;;;;;;4912683;29;20088;-72
2022/01/16 06:08:20;;;;;;;16.33;11.25;;;6.00;96.70;;;;;;4914526;29;20111;-72
2022/01/16 06:10:49;;;;;;;15.82;11.57;;;6.00;96.70;;;;;;4900775;29;20128;-71
2022/01/16 06:13:17;;;;;;;18.67;14.43;;;6.00;96.70;;;;;;4913310;29;20533;-73
2022/01/16 06:15:46;;;;;;;17.88;11.70;;;6.00;96.70;;;;;;4906041;29;20621;-72
2022/01/16 06:18:16;;;;;;;16.67;10.98;;;5.90;96.70;;;;;;4921515;29;20517;-72
2022/01/16 06:20:44;;;;;;;17.27;11.23;;;5.90;96.70;;;;;;4889323;29;20047;-72
2022/01/16 06:23:14;;;;;;;16.42;12.25;;;6.00;96.70;;;;;;4914292;29;20070;-72
2022/01/16 06:25:42;;;;;;;17.35;11.57;;;6.00;96.70;;;;;;4920399;29;20437;-72
2022/01/16 06:28:11;;;;;;;18.02;12.13;;;5.90;96.70;;;;;;4915621;29;20622;-72
2022/01/16 06:30:39;;;;;;;16.58;11.75;;;5.90;96.70;;;;;;4903876;29;20044;-72
2022/01/16 06:33:09;;;;;;;15.10;10.35;;;5.90;96.70;;;;;;4906500;29;20402;-73
2022/01/16 06:35:39;;;;;;;16.42;11.13;;;5.90;96.70;;;;;;4906775;29;20071;-71
2022/01/16 06:38:07;;;;;;;14.80;11.07;;;5.90;96.70;;;;;;4900391;29;20573;-73
2022/01/16 06:40:36;;;;;;;16.27;11.32;;;5.90;96.70;;;;;;4921740;29;20055;-72
2022/01/16 06:43:04;;;;;;;14.95;11.13;;;5.80;96.70;;;;;;4921296;29;20142;-72
2022/01/16 06:45:32;;;;;;;14.15;10.50;;;5.80;96.70;;;;;;4920748;29;20039;-71
2022/01/16 06:48:00;;;;;;;15.65;11.27;;;5.80;96.70;;;;;;4915906;29;20040;-72
2022/01/16 06:50:28;;;;;;;16.27;11.30;;;5.90;96.70;;;;;;4908169;29;20047;-72
2022/01/16 06:52:58;;;;;;;29.30;16.30;;;6.00;96.70;;;;;;4918858;29;20047;-72
2022/01/16 06:55:26;;;;;;;31.25;17.35;;;6.00;96.70;;;;;;4901933;29;20418;-72
2022/01/16 06:57:54;;;;;;;49.72;26.42;;;5.90;96.70;;;;;;4905841;29;20108;-72
2022/01/16 07:00:23;;;;;;;37.38;19.52;;;6.00;96.70;;;;;;4923539;29;20528;-72
2022/01/16 07:02:51;;;;;;;23.58;14.50;;;6.00;96.70;;;;;;4922258;29;20042;-73
2022/01/16 07:05:20;;;;;;;29.40;16.85;;;6.10;96.70;;;;;;4887628;29;20325;-73
2022/01/16 07:07:48;;;;;;;22.30;14.30;;;6.10;96.70;;;;;;4917652;29;20493;-72
2022/01/16 07:10:18;;;;;;;19.35;14.00;;;6.20;96.70;;;;;;4916915;28;20044;-72
2022/01/16 07:12:46;;;;;;;19.50;13.93;;;6.10;96.70;;;;;;4901497;29;20540;-72
2022/01/16 07:15:14;;;;;;;23.42;14.00;;;6.20;96.70;;;;;;4914148;29;20518;-72
2022/01/16 07:17:43;;;;;;;19.17;13.02;;;6.30;96.70;;;;;;4919722;29;20115;-72
2022/01/16 07:20:14;;;;;;;19.23;13.90;;;6.30;96.70;;;;;;4909199;29;20131;-72
2022/01/16 07:22:43;;;;;;;18.10;13.25;;;6.30;96.70;;;;;;4914643;29;20054;-72
2022/01/16 07:25:12;;;;;;;20.98;13.73;;;6.30;96.70;;;;;;4918594;29;20051;-72
2022/01/16 07:27:42;;;;;;;20.70;14.00;;;6.40;96.70;;;;;;4918317;29;20048;-72
2022/01/16 07:30:11;;;;;;;19.50;14.57;;;6.40;96.70;;;;;;4897351;29;20123;-71
2022/01/16 07:32:39;;;;;;;22.45;13.70;;;6.50;96.70;;;;;;4918846;29;20044;-71
2022/01/16 07:35:08;;;;;;;24.52;16.88;;;6.50;96.70;;;;;;4901834;29;20071;-72
2022/01/16 07:37:56;;;;;;;24.38;17.48;;;6.60;96.70;;;;;;4899950;29;20052;-73
2022/01/16 07:40:25;;;;;;;30.85;22.40;;;6.60;96.70;;;;;;4916696;29;20131;-71
2022/01/16 07:42:55;;;;;;;36.53;29.30;;;6.50;96.70;;;;;;4900809;29;20044;-71
2022/01/16 07:45:23;;;;;;;29.02;23.10;;;6.60;96.70;;;;;;4919482;29;20477;-71
2022/01/16 07:47:52;;;;;;;27.75;21.25;;;6.60;96.70;;;;;;4910743;29;20116;-72
2022/01/16 07:50:20;;;;;;;26.23;18.85;;;6.60;96.70;;;;;;4903088;29;20048;-72
2022/01/16 07:52:49;;;;;;;24.40;18.15;;;6.70;96.70;;;;;;4915584;29;20067;-72
2022/01/16 07:55:20;;;;;;;22.92;17.75;;;6.70;96.70;;;;;;4919350;29;20050;-72
2022/01/16 07:57:49;;;;;;;25.48;17.33;;;6.80;96.70;;;;;;4888494;29;20271;-71
2022/01/16 08:00:34;;;;;;;24.35;17.27;;;6.80;96.70;;;;;;4900458;29;20393;-72
2022/01/16 08:03:03;;;;;;;24.40;18.23;;;6.80;96.70;;;;;;4899028;29;20155;-72
2022/01/16 08:05:34;;;;;;;22.33;15.57;;;6.90;96.70;;;;;;4902124;29;20051;-72
2022/01/16 08:08:02;;;;;;;20.52;15.57;;;6.90;96.70;;;;;;4898615;29;20099;-72
2022/01/16 08:10:30;;;;;;;21.80;15.65;;;6.90;96.70;;;;;;4898703;29;20058;-72
2022/01/16 08:12:59;;;;;;;26.10;18.90;;;7.00;96.70;;;;;;4897962;29;20633;-72
2022/01/16 08:15:27;;;;;;;27.40;20.05;;;7.00;96.70;;;;;;4912874;29;20048;-72
2022/01/16 08:17:57;;;;;;;28.63;20.13;;;7.10;96.70;;;;;;4901563;29;20529;-72
2022/01/16 08:20:26;;;;;;;28.05;18.98;;;7.10;96.70;;;;;;4918806;29;20047;-72
2022/01/16 08:22:54;;;;;;;23.25;17.67;;;7.10;96.70;;;;;;4915889;29;20047;-71
2022/01/16 08:25:24;;;;;;;26.63;18.30;;;7.10;96.70;;;;;;4916310;29;20043;-71
2022/01/16 08:27:52;;;;;;;23.08;17.25;;;7.20;96.70;;;;;;4896050;29;20047;-71
2022/01/16 08:30:20;;;;;;;24.80;18.33;;;7.20;96.70;;;;;;4897262;29;20063;-72
2022/01/16 08:32:48;;;;;;;24.35;17.73;;;7.30;96.70;;;;;;4899538;29;20044;-71
2022/01/16 08:35:21;;;;;;;25.75;16.98;;;7.30;96.70;;;;;;4916448;29;20043;-72
2022/01/16 08:37:49;;;;;;;22.27;16.95;;;7.30;96.70;;;;;;4895507;29;20082;-71
2022/01/16 08:40:18;;;;;;;23.90;18.85;;;7.30;96.70;;;;;;4895865;29;20134;-72
2022/01/16 08:42:46;;;;;;;26.55;19.38;;;7.40;96.70;;;;;;4911993;29;20048;-72
2022/01/16 08:45:14;;;;;;;25.73;20.00;;;7.50;96.70;;;;;;4903604;29;20319;-72
2022/01/16 08:47:42;;;;;;;24.83;19.75;;;7.50;96.70;;;;;;4911961;29;20040;-72
2022/01/16 08:50:11;;;;;;;23.88;18.98;;;7.60;96.70;;;;;;4901201;29;20106;-72
2022/01/16 08:52:40;;;;;;;24.48;19.50;;;7.60;96.70;;;;;;4897238;29;20056;-71
2022/01/16 08:55:10;;;;;;;26.00;19.65;;;7.70;96.70;;;;;;4895338;29;20344;-72
2022/01/16 08:57:38;;;;;;;24.23;19.02;;;7.70;96.70;;;;;;4900323;29;20524;-72
2022/01/16 09:00:09;;;;;;;25.77;20.20;;;7.80;96.70;;;;;;4895672;29;20056;-72
2022/01/16 09:02:37;;;;;;;27.65;20.33;;;7.80;96.70;;;;;;4898730;29;20044;-71
2022/01/16 09:05:06;;;;;;;25.88;20.23;;;7.80;96.70;;;;;;4912228;29;20415;-72
2022/01/16 09:07:34;;;;;;;26.98;21.23;;;7.90;96.70;;;;;;4917444;29;20112;-72
2022/01/16 09:10:05;;;;;;;26.73;20.75;;;7.90;96.70;;;;;;4898051;29;20046;-72
2022/01/16 09:12:34;;;;;;;28.17;21.80;;;8.00;96.70;;;;;;4916332;29;20154;-72
2022/01/16 09:15:06;;;;;;;33.03;22.05;;;8.10;96.70;;;;;;4894726;29;20056;-71
2022/01/16 09:17:35;;;;;;;28.00;23.30;;;8.10;96.70;;;;;;4912917;29;20475;-71
2022/01/16 09:20:05;;;;;;;38.63;29.27;;;8.20;96.70;;;;;;4903843;29;20395;-71
2022/01/16 09:22:34;;;;;;;40.85;29.70;;;8.20;96.70;;;;;;4916404;29;20050;-71
2022/01/16 09:25:04;;;;;;;42.28;30.50;;;8.30;96.70;;;;;;4912712;29;20044;-71
2022/01/16 09:27:33;;;;;;;40.17;30.65;;;8.40;96.70;;;;;;4918671;29;20053;-71
2022/01/16 09:30:01;;;;;;;37.30;27.15;;;8.40;96.70;;;;;;4898695;29;20447;-71
2022/01/16 09:32:31;;;;;;;35.00;27.02;;;8.50;96.70;;;;;;4901494;29;20473;-72
2022/01/16 09:35:00;;;;;;;40.33;28.65;;;8.50;96.70;;;;;;4895938;29;20138;-72
2022/01/16 09:37:28;;;;;;;33.85;26.55;;;8.60;96.70;;;;;;4903256;29;20498;-71
2022/01/16 09:39:58;;;;;;;43.88;32.30;;;8.60;96.70;;;;;;4909302;29;20054;-71
2022/01/16 09:42:28;;;;;;;43.53;30.90;;;8.60;96.70;;;;;;4898419;29;20146;-71
2022/01/16 09:44:56;;;;;;;36.30;29.15;;;8.70;96.70;;;;;;4898756;29;20139;-71
2022/01/16 09:47:25;;;;;;;36.83;28.90;;;8.80;96.70;;;;;;4915396;29;20050;-71
2022/01/16 09:49:53;;;;;;;34.10;25.63;;;8.80;96.70;;;;;;4916197;29;20126;-71
2022/01/16 09:52:21;;;;;;;33.42;26.35;;;8.80;96.70;;;;;;4919537;29;20098;-71
2022/01/16 09:54:50;;;;;;;35.17;26.20;;;8.80;96.70;;;;;;4914534;29;20036;-71
2022/01/16 09:57:18;;;;;;;33.63;25.40;;;8.90;96.70;;;;;;4921659;29;20050;-72
2022/01/16 09:59:48;;;;;;;32.88;24.88;;;8.80;96.70;;;;;;4920172;29;20499;-72
2022/01/16 10:02:17;;;;;;;33.22;25.02;;;8.80;96.70;;;;;;4904084;29;20042;-71
2022/01/16 10:04:46;;;;;;;31.65;24.55;;;8.80;96.70;;;;;;4884789;29;20969;-72
2022/01/16 10:07:16;;;;;;;35.15;25.10;;;8.90;96.70;;;;;;4887850;29;20060;-70
2022/01/16 10:10:03;;;;;;;30.17;22.13;;;9.00;96.70;;;;;;4922435;29;20460;-71
2022/01/16 10:12:33;;;;;;;30.25;23.65;;;9.10;96.70;;;;;;4899454;29;20044;-71
2022/01/16 10:15:19;;;;;;;30.92;23.42;;;9.20;96.70;;;;;;4898693;29;20577;-71
2022/01/16 10:17:49;;;;;;;29.75;23.77;;;9.30;96.70;;;;;;4897279;29;20055;-71
2022/01/16 10:20:18;;;;;;;31.25;24.13;;;9.50;96.70;;;;;;4916315;29;20060;-70
2022/01/16 10:22:52;;;;;;;31.67;24.02;;;9.60;96.70;;;;;;4924331;29;20043;-70
2022/01/16 10:25:39;;;;;;;31.00;23.52;;;9.70;96.70;;;;;;4905181;29;20316;-70
2022/01/16 10:28:14;;;;;;;28.23;23.08;;;9.80;96.70;;;;;;4901216;29;20359;-70
2022/01/16 10:30:45;;;;;;;33.88;24.92;;;9.80;96.70;;;;;;4915937;29;20040;-71
2022/01/16 10:33:15;;;;;;;32.15;24.27;;;9.70;96.70;;;;;;4898050;29;20187;-70
2022/01/16 10:35:47;;;;;;;31.63;24.75;;;9.70;96.70;;;;;;4905774;29;20039;-71
2022/01/16 10:38:20;;;;;;;30.73;22.35;;;9.70;96.70;;;;;;4915105;29;20072;-70
2022/01/16 10:40:52;;;;;;;26.30;22.38;;;9.70;96.70;;;;;;4901594;29;20052;-71
2022/01/16 10:43:35;;;;;;;27.40;22.42;;;9.80;96.70;;;;;;4919682;29;20047;-70
2022/01/16 10:46:06;;;;;;;32.72;24.85;;;9.70;96.70;;;;;;4917092;29;20486;-70
2022/01/16 10:49:14;;;;;;;31.08;23.50;;;9.70;96.70;;;;;;4906435;29;20056;-71
2022/01/16 10:51:59;;;;;;;29.02;23.27;;;9.60;96.70;;;;;;4919151;29;20062;-70
2022/01/16 10:54:32;;;;;;;33.67;25.77;;;9.60;96.70;;;;;;4919968;29;20110;-70
2022/01/16 10:57:18;;;;;;;31.20;24.75;;;9.60;96.70;;;;;;4917244;29;20509;-70
2022/01/16 10:59:47;;;;;;;29.52;23.45;;;9.70;96.70;;;;;;4920766;29;20130;-72
2022/01/16 11:02:17;;;;;;;30.95;24.63;;;9.70;96.70;;;;;;4921243;28;20047;-70
2022/01/16 11:04:46;;;;;;;31.92;24.73;;;9.80;96.70;;;;;;4897367;29;20395;-71
2022/01/16 11:07:14;;;;;;;27.50;23.60;;;10.00;96.70;;;;;;4916248;29;20632;-70
2022/01/16 11:09:43;;;;;;;29.80;23.55;;;10.10;96.70;;;;;;4920250;29;20387;-70
2022/01/16 11:12:11;;;;;;;31.95;23.90;;;10.10;96.70;;;;;;4896599;29;20044;-69
2022/01/16 11:14:39;;;;;;;27.27;21.98;;;10.10;96.70;;;;;;4917533;29;20083;-71
2022/01/16 11:17:07;;;;;;;27.33;22.90;;;10.10;96.70;;;;;;4899260;29;20095;-70
2022/01/16 11:19:38;;;;;;;30.52;24.10;;;10.20;96.70;;;;;;4917929;29;20130;-70
2022/01/16 11:22:10;;;;;;;29.55;24.00;;;10.30;96.70;;;;;;4916322;29;20056;-70
2022/01/16 11:25:00;;;;;;;31.60;25.23;;;10.30;96.70;;;;;;4920839;29;20529;-70
2022/01/16 11:27:37;;;;;;;36.05;28.13;;;10.50;96.70;;;;;;4917638;29;20048;-70
2022/01/16 11:30:07;;;;;;;32.33;25.25;;;10.90;96.70;;;;;;4917157;29;20044;-70
2022/01/16 11:32:35;;;;;;;30.02;25.13;;;11.20;96.70;;;;;;4917190;29;20502;-71
2022/01/16 11:35:07;;;;;;;32.35;24.27;;;11.10;96.70;;;;;;4918671;29;20048;-71
2022/01/16 11:37:36;;;;;;;29.60;23.27;;;11.00;96.70;;;;;;4916225;29;20371;-74
2022/01/16 11:40:35;;;;;;;28.45;21.40;;;11.00;96.70;;;;;;4890097;29;20215;-71
2022/01/16 11:43:23;;;;;;;32.42;24.88;;;11.20;96.70;;;;;;4880499;29;20510;-70
2022/01/16 11:45:54;;;;;;;33.40;26.70;;;11.30;96.70;;;;;;4900844;29;20054;-70
2022/01/16 11:48:47;;;;;;;33.55;25.77;;;11.40;96.70;;;;;;4904664;29;20356;-70
2022/01/16 11:51:53;;;;;;;28.45;23.08;;;11.30;96.70;;;;;;4913766;29;20413;-74
2022/01/16 11:54:27;;;;;;;30.83;23.70;;;11.20;96.70;;;;;;4915293;29;20052;-71
2022/01/16 11:57:04;;;;;;;32.97;26.30;;;11.20;96.70;;;;;;4889716;29;20462;-73
2022/01/16 11:59:40;;;;;;;29.35;23.45;;;11.30;96.70;;;;;;4915591;29;20058;-73
2022/01/16 12:02:26;;;;;;;28.87;22.83;;;11.30;96.70;;;;;;4900698;29;20047;-73
2022/01/16 12:05:00;;;;;;;30.63;24.52;;;11.30;96.70;;;;;;4898238;29;20074;-73
2022/01/16 12:07:49;;;;;;;29.77;23.98;;;11.30;96.70;;;;;;4901408;29;20157;-72
2022/01/16 12:10:45;;;;;;;25.02;21.00;;;11.40;96.70;;;;;;4902281;29;20043;-72
2022/01/16 12:13:49;;;;;;;24.20;20.88;;;11.50;96.70;;;;;;4912080;29;20066;-73
2022/01/16 12:16:38;;;;;;;25.83;21.65;;;11.70;96.70;;;;;;4905773;29;20106;-73
2022/01/16 12:19:42;;;;;;;30.92;24.35;;;11.80;96.70;;;;;;4916924;29;20122;-72
2022/01/16 12:22:14;;;;;;;30.73;25.70;;;11.90;96.70;;;;;;4917318;29;20139;-72
2022/01/16 12:24:49;;;;;;;25.25;20.42;;;11.90;96.70;;;;;;4898768;29;20039;-72
2022/01/16 12:27:22;;;;;;;31.60;23.27;;;12.10;96.70;;;;;;4898502;29;20059;-70
2022/01/16 12:30:11;;;;;;;26.65;21.10;;;12.20;96.70;;;;;;4920468;29;20126;-71
2022/01/16 12:32:50;;;;;;;25.80;20.70;;;12.40;96.70;;;;;;4905947;29;20514;-71
2022/01/16 12:36:08;;;;;;;44.42;32.13;;;12.60;96.70;;;;;;4913258;29;20043;-71
2022/01/16 12:39:07;;;;;;;26.75;21.08;;;12.80;96.70;;;;;;4896725;29;20048;-70
2022/01/16 12:41:44;;;;;;;24.90;18.02;;;13.00;96.70;;;;;;4918627;29;20048;-71
2022/01/16 12:44:13;;;;;;;21.15;16.25;;;13.10;96.70;;;;;;4918134;29;20047;-72
2022/01/16 12:46:44;;;;;;;19.13;16.58;;;13.00;96.70;;;;;;4917085;29;20534;-72
2022/01/16 12:49:14;;;;;;;17.50;12.50;;;13.10;96.70;;;;;;4918488;29;20050;-71
2022/01/16 12:51:45;;;;;;;14.50;10.75;;;13.30;96.70;;;;;;4897895;29;20647;-72
2022/01/16 12:54:15;;;;;;;11.57;9.75;;;13.60;96.70;;;;;;4917908;29;20455;-72
2022/01/16 12:56:47;;;;;;;14.13;11.65;;;13.60;96.70;;;;;;4895656;29;20213;-72
2022/01/16 12:59:38;;;;;;;11.18;7.10;;;13.70;96.70;;;;;;4920671;29;20046;-71
2022/01/16 13:02:07;;;;;;;10.70;8.13;;;13.70;96.70;;;;;;4912893;29;20066;-72
2022/01/16 13:04:38;;;;;;;10.80;8.10;;;13.90;96.70;;;;;;4903282;29;20087;-71
2022/01/16 13:07:27;;;;;;;11.25;7.63;;;13.90;96.70;;;;;;4914657;29;20070;-72
2022/01/16 13:09:55;;;;;;;14.23;10.15;;;13.90;96.70;;;;;;4881328;29;20123;-71
2022/01/16 13:12:25;;;;;;;10.93;7.93;;;13.90;96.70;;;;;;4915111;29;20094;-71
2022/01/16 13:14:57;;;;;;;8.90;7.43;;;14.10;96.70;;;;;;4914764;29;20138;-72
2022/01/16 13:17:25;;;;;;;12.15;6.57;;;14.10;96.70;;;;;;4897544;29;20460;-72
2022/01/16 13:19:56;;;;;;;11.45;7.75;;;14.20;96.70;;;;;;4914721;29;20131;-72
2022/01/16 13:22:25;;;;;;;10.02;6.82;;;14.20;96.70;;;;;;4918668;29;20051;-72
2022/01/16 13:25:06;;;;;;;8.85;5.88;;;14.30;96.70;;;;;;4916410;29;20043;-71
2022/01/16 13:27:38;;;;;;;9.13;5.30;;;14.30;96.70;;;;;;4923837;29;20047;-72
2022/01/16 13:30:13;;;;;;;17.23;9.40;;;14.30;96.70;;;;;;4900818;29;20130;-72
2022/01/16 13:32:42;;;;;;;8.40;4.45;;;14.30;96.70;;;;;;4917892;29;20043;-72
2022/01/16 13:35:21;;;;;;;13.32;5.63;;;14.30;96.70;;;;;;4900887;29;20046;-72
2022/01/16 13:37:52;;;;;;;8.82;4.05;;;14.30;96.70;;;;;;4921119;29;20039;-73
2022/01/16 13:40:24;;;;;;;10.82;6.00;;;14.30;96.70;;;;;;4897339;29;20269;-73
2022/01/16 13:45:35;;;;;;;6.37;3.97;;;14.00;96.70;;;;;;4917844;29;20044;-72